sensor_id;sensor_type;location;lat;lon;timestamp;pressure;altitude;pressure_sealevel;temperature;humidity
8653;BME280;4364;52.426;9.424;2023-01-29T00:01:50;102348.84;;;-0.32;84.98
8653;BME280;4364;52.426;9.424;2023-01-29T00:04:17;102351.22;;;-0.12;84.34
8653;BME280;4364;52.426;9.424;2023-01-29T00:06:44;102346.91;;;-0.22;84.11
8653;BME280;4364;52.426;9.424;2023-01-29T00:09:11;102345.34;;;-0.32;84.97
8653;BME280;4364;52.426;9.424;2023-01-29T00:11:38;102345.38;;;-0.24;84.86
8653;BME280;4364;52.426;9.424;2023-01-29T00:14:05;102348.34;;;-0.35;85.41
8653;BME280;4364;52.426;9.424;2023-01-29T00:16:32;102348.03;;;-0.24;84.10
8653;BME280;4364;52.426;9.424;2023-01-29T00:19:00;102337.69;;;-0.27;84.53
8653;BME280;4364;52.426;9.424;2023-01-29T00:21:28;102335.19;;;-0.21;84.18
8653;BME280;4364;52.426;9.424;2023-01-29T00:23:56;102323.00;;;-0.23;84.09
8653;BME280;4364;52.426;9.424;2023-01-29T00:26:24;102330.00;;;-0.22;83.44
8653;BME280;4364;52.426;9.424;2023-01-29T00:28:51;102323.78;;;-0.39;84.27
8653;BME280;4364;52.426;9.424;2023-01-29T00:31:22;102327.97;;;-0.36;84.79
8653;BME280;4364;52.426;9.424;2023-01-29T00:33:50;102327.97;;;-0.36;84.59
8653;BME280;4364;52.426;9.424;2023-01-29T00:36:18;102327.31;;;-0.30;84.52
8653;BME280;4364;52.426;9.424;2023-01-29T00:38:45;102336.84;;;-0.28;84.27
8653;BME280;4364;52.426;9.424;2023-01-29T00:41:21;102329.00;;;-0.29;84.24
8653;BME280;4364;52.426;9.424;2023-01-29T00:44:07;102333.34;;;-0.12;83.93
8653;BME280;4364;52.426;9.424;2023-01-29T00:46:52;102344.69;;;-0.34;84.95
8653;BME280;4364;52.426;9.424;2023-01-29T00:49:19;102335.16;;;-0.29;84.84
8653;BME280;4364;52.426;9.424;2023-01-29T00:51:45;102344.03;;;-0.12;84.53
8653;BME280;4364;52.426;9.424;2023-01-29T00:54:35;102344.22;;;-0.22;84.84
8653;BME280;4364;52.426;9.424;2023-01-29T00:57:02;102339.34;;;-0.26;85.24
8653;BME280;4364;52.426;9.424;2023-01-29T00:59:30;102334.34;;;-0.13;85.38
8653;BME280;4364;52.426;9.424;2023-01-29T01:01:57;102334.84;;;-0.17;84.83
8653;BME280;4364;52.426;9.424;2023-01-29T01:04:42;102336.69;;;-0.26;85.10
8653;BME280;4364;52.426;9.424;2023-01-29T01:07:08;102328.00;;;-0.12;85.46
8653;BME280;4364;52.426;9.424;2023-01-29T01:09:35;102330.69;;;-0.20;85.73
8653;BME280;4364;52.426;9.424;2023-01-29T01:12:21;102326.00;;;-0.10;85.14
8653;BME280;4364;52.426;9.424;2023-01-29T01:14:47;102309.97;;;-0.10;84.87
8653;BME280;4364;52.426;9.424;2023-01-29T01:17:14;102312.31;;;-0.15;85.00
8653;BME280;4364;52.426;9.424;2023-01-29T01:19:42;102309.09;;;-0.19;85.47
8653;BME280;4364;52.426;9.424;2023-01-29T01:22:08;102300.75;;;-0.15;84.93
8653;BME280;4364;52.426;9.424;2023-01-29T01:24:36;102302.09;;;-0.11;84.75
8653;BME280;4364;52.426;9.424;2023-01-29T01:27:03;102300.41;;;-0.12;85.12
8653;BME280;4364;52.426;9.424;2023-01-29T01:29:30;102289.22;;;-0.16;85.10
8653;BME280;4364;52.426;9.424;2023-01-29T01:31:57;102288.41;;;-0.16;85.08
8653;BME280;4364;52.426;9.424;2023-01-29T01:34:24;102292.22;;;-0.19;85.44
8653;BME280;4364;52.426;9.424;2023-01-29T01:36:53;102298.94;;;-0.23;85.54
8653;BME280;4364;52.426;9.424;2023-01-29T01:39:23;102285.72;;;-0.16;85.43
8653;BME280;4364;52.426;9.424;2023-01-29T01:41:50;102283.22;;;-0.26;85.44
8653;BME280;4364;52.426;9.424;2023-01-29T01:44:54;102285.41;;;-0.22;85.26
8653;BME280;4364;52.426;9.424;2023-01-29T01:47:25;102288.91;;;-0.21;84.92
8653;BME280;4364;52.426;9.424;2023-01-29T01:49:54;102276.50;;;-0.22;84.33
8653;BME280;4364;52.426;9.424;2023-01-29T01:52:23;102280.88;;;-0.29;84.87
8653;BME280;4364;52.426;9.424;2023-01-29T01:54:50;102275.69;;;-0.31;84.89
8653;BME280;4364;52.426;9.424;2023-01-29T01:57:20;102278.19;;;-0.21;84.46
8653;BME280;4364;52.426;9.424;2023-01-29T02:00:09;102290.38;;;-0.19;83.63
8653;BME280;4364;52.426;9.424;2023-01-29T02:02:43;102282.88;;;-0.15;83.68
8653;BME280;4364;52.426;9.424;2023-01-29T02:05:33;102285.56;;;-0.23;83.93
8653;BME280;4364;52.426;9.424;2023-01-29T02:08:36;102291.38;;;-0.36;84.55
8653;BME280;4364;52.426;9.424;2023-01-29T02:11:26;102297.91;;;-0.30;84.36
8653;BME280;4364;52.426;9.424;2023-01-29T02:13:52;102302.41;;;-0.31;84.12
8653;BME280;4364;52.426;9.424;2023-01-29T02:16:24;102312.44;;;-0.33;84.64
8653;BME280;4364;52.426;9.424;2023-01-29T02:18:51;102307.59;;;-0.29;83.62
8653;BME280;4364;52.426;9.424;2023-01-29T02:21:46;102304.75;;;-0.36;83.77
8653;BME280;4364;52.426;9.424;2023-01-29T02:24:43;102316.94;;;-0.25;83.66
8653;BME280;4364;52.426;9.424;2023-01-29T02:27:20;102323.81;;;-0.23;83.40
8653;BME280;4364;52.426;9.424;2023-01-29T02:29:56;102329.81;;;-0.21;83.23
8653;BME280;4364;52.426;9.424;2023-01-29T02:32:49;102333.53;;;-0.22;82.61
8653;BME280;4364;52.426;9.424;2023-01-29T02:35:34;102337.50;;;-0.26;82.13
8653;BME280;4364;52.426;9.424;2023-01-29T02:38:23;102335.84;;;-0.27;82.08
8653;BME280;4364;52.426;9.424;2023-01-29T02:41:00;102328.84;;;-0.20;81.66
8653;BME280;4364;52.426;9.424;2023-01-29T02:43:54;102337.19;;;-0.23;81.52
8653;BME280;4364;52.426;9.424;2023-01-29T02:46:31;102330.69;;;-0.20;81.07
8653;BME280;4364;52.426;9.424;2023-01-29T02:51:47;102339.19;;;-0.25;80.88
8653;BME280;4364;52.426;9.424;2023-01-29T02:54:20;102337.19;;;-0.23;80.91
8653;BME280;4364;52.426;9.424;2023-01-29T02:56:57;102332.00;;;-0.24;81.27
8653;BME280;4364;52.426;9.424;2023-01-29T02:59:31;102325.66;;;-0.23;80.95
8653;BME280;4364;52.426;9.424;2023-01-29T03:02:08;102317.47;;;-0.22;81.20
8653;BME280;4364;52.426;9.424;2023-01-29T03:04:42;102323.97;;;-0.24;80.83
8653;BME280;4364;52.426;9.424;2023-01-29T03:07:21;102318.63;;;-0.32;80.99
8653;BME280;4364;52.426;9.424;2023-01-29T03:10:18;102314.97;;;-0.31;81.24
8653;BME280;4364;52.426;9.424;2023-01-29T03:12:52;102309.78;;;-0.33;81.65
8653;BME280;4364;52.426;9.424;2023-01-29T03:15:27;102312.47;;;-0.25;81.11
8653;BME280;4364;52.426;9.424;2023-01-29T03:18:17;102298.91;;;-0.31;81.12
8653;BME280;4364;52.426;9.424;2023-01-29T03:20:50;102296.25;;;-0.15;80.44
8653;BME280;4364;52.426;9.424;2023-01-29T03:23:24;102290.56;;;-0.20;80.64
8653;BME280;4364;52.426;9.424;2023-01-29T03:26:04;102296.91;;;-0.29;80.73
8653;BME280;4364;52.426;9.424;2023-01-29T03:28:50;102288.22;;;-0.23;80.29
8653;BME280;4364;52.426;9.424;2023-01-29T03:31:37;102282.88;;;-0.15;80.44
8653;BME280;4364;52.426;9.424;2023-01-29T03:34:23;102285.72;;;-0.16;80.16
8653;BME280;4364;52.426;9.424;2023-01-29T03:37:05;102294.56;;;-0.16;79.86
8653;BME280;4364;52.426;9.424;2023-01-29T03:39:35;102275.03;;;-0.16;80.28
8653;BME280;4364;52.426;9.424;2023-01-29T03:42:27;102279.84;;;-0.12;80.44
8653;BME280;4364;52.426;9.424;2023-01-29T03:45:05;102275.88;;;-0.08;79.97
8653;BME280;4364;52.426;9.424;2023-01-29T03:47:46;102276.53;;;-0.14;79.97
8653;BME280;4364;52.426;9.424;2023-01-29T03:50:59;102269.84;;;-0.26;80.89
8653;BME280;4364;52.426;9.424;2023-01-29T03:53:42;102265.16;;;-0.24;80.74
8653;BME280;4364;52.426;9.424;2023-01-29T03:56:25;102262.16;;;-0.21;80.71
8653;BME280;4364;52.426;9.424;2023-01-29T04:02:29;102257.47;;;-0.19;80.93
8653;BME280;4364;52.426;9.424;2023-01-29T04:05:04;102250.97;;;-0.16;81.03
8653;BME280;4364;52.426;9.424;2023-01-29T04:07:46;102241.59;;;-0.21;81.20
8653;BME280;4364;52.426;9.424;2023-01-29T04:10:20;102241.91;;;-0.24;81.15
8653;BME280;4364;52.426;9.424;2023-01-29T04:12:54;102225.88;;;-0.24;81.81
8653;BME280;4364;52.426;9.424;2023-01-29T04:15:24;102231.75;;;-0.20;81.83
8653;BME280;4364;52.426;9.424;2023-01-29T04:17:54;102221.56;;;-0.16;81.60
8653;BME280;4364;52.426;9.424;2023-01-29T04:20:31;102217.03;;;-0.24;82.35
8653;BME280;4364;52.426;9.424;2023-01-29T04:22:58;102209.50;;;-0.21;81.47
8653;BME280;4364;52.426;9.424;2023-01-29T04:25:44;102210.69;;;-0.07;81.28
8653;BME280;4364;52.426;9.424;2023-01-29T04:28:24;102195.97;;;-0.19;81.66
8653;BME280;4364;52.426;9.424;2023-01-29T04:30:59;102193.97;;;-0.25;81.75
8653;BME280;4364;52.426;9.424;2023-01-29T04:39:06;102185.94;;;-0.09;80.76
8653;BME280;4364;52.426;9.424;2023-01-29T04:41:51;102184.28;;;-0.10;80.49
8653;BME280;4364;52.426;9.424;2023-01-29T04:44:37;102183.41;;;-0.10;80.61
8653;BME280;4364;52.426;9.424;2023-01-29T04:47:30;102176.09;;;-0.08;80.96
8653;BME280;4364;52.426;9.424;2023-01-29T04:50:16;102176.91;;;-0.08;80.81
8653;BME280;4364;52.426;9.424;2023-01-29T04:52:57;102179.91;;;-0.03;80.38
8653;BME280;4364;52.426;9.424;2023-01-29T04:55:33;102172.22;;;-0.14;80.98
8653;BME280;4364;52.426;9.424;2023-01-29T04:58:08;102176.09;;;-0.08;80.73
8653;BME280;4364;52.426;9.424;2023-01-29T05:00:41;102171.69;;;0.07;80.11
8653;BME280;4364;52.426;9.424;2023-01-29T05:03:11;102170.53;;;0.02;79.78
8653;BME280;4364;52.426;9.424;2023-01-29T05:05:40;102178.94;;;-0.10;80.42
8653;BME280;4364;52.426;9.424;2023-01-29T05:08:10;102180.41;;;-0.07;80.73
8653;BME280;4364;52.426;9.424;2023-01-29T05:10:38;102173.88;;;0.12;80.04
8653;BME280;4364;52.426;9.424;2023-01-29T05:13:07;102174.03;;;0.10;79.86
8653;BME280;4364;52.426;9.424;2023-01-29T05:15:38;102161.81;;;0.08;79.87
8653;BME280;4364;52.426;9.424;2023-01-29T05:18:05;102167.84;;;0.02;79.91
8653;BME280;4364;52.426;9.424;2023-01-29T05:20:37;102167.50;;;0.13;79.21
8653;BME280;4364;52.426;9.424;2023-01-29T05:23:08;102163.50;;;0.09;79.54
8653;BME280;4364;52.426;9.424;2023-01-29T05:25:36;102158.16;;;0.09;79.99
8653;BME280;4364;52.426;9.424;2023-01-29T05:28:02;102164.19;;;0.03;80.17
8653;BME280;4364;52.426;9.424;2023-01-29T05:30:31;102165.88;;;-0.05;80.08
8653;BME280;4364;52.426;9.424;2023-01-29T05:32:58;102172.53;;;-0.01;80.31
8653;BME280;4364;52.426;9.424;2023-01-29T05:35:25;102172.53;;;0.08;79.92
8653;BME280;4364;52.426;9.424;2023-01-29T05:37:57;102180.03;;;0.12;79.88
8653;BME280;4364;52.426;9.424;2023-01-29T05:40:24;102175.53;;;0.13;79.71
8653;BME280;4364;52.426;9.424;2023-01-29T05:42:50;102182.06;;;0.10;79.77
8653;BME280;4364;52.426;9.424;2023-01-29T05:45:17;102177.53;;;0.11;79.71
8653;BME280;4364;52.426;9.424;2023-01-29T05:47:44;102169.19;;;0.06;79.98
8653;BME280;4364;52.426;9.424;2023-01-29T05:50:12;102171.88;;;0.06;80.18
8653;BME280;4364;52.426;9.424;2023-01-29T05:52:39;102181.41;;;0.00;80.33
8653;BME280;4364;52.426;9.424;2023-01-29T05:55:07;102193.28;;;0.06;80.16
8653;BME280;4364;52.426;9.424;2023-01-29T05:57:35;102201.28;;;0.06;79.80
8653;BME280;4364;52.426;9.424;2023-01-29T06:00:02;102194.09;;;-0.02;80.17
8653;BME280;4364;52.426;9.424;2023-01-29T06:02:37;102186.94;;;-0.10;80.83
8653;BME280;4364;52.426;9.424;2023-01-29T06:05:04;102189.63;;;-0.02;80.98
8653;BME280;4364;52.426;9.424;2023-01-29T06:07:30;102187.94;;;-0.03;80.78
8653;BME280;4364;52.426;9.424;2023-01-29T06:09:57;102193.78;;;0.01;80.84
8653;BME280;4364;52.426;9.424;2023-01-29T06:12:25;102194.59;;;0.02;80.59
8653;BME280;4364;52.426;9.424;2023-01-29T06:14:52;102193.44;;;-0.04;80.90
8653;BME280;4364;52.426;9.424;2023-01-29T06:17:19;102190.09;;;0.02;80.31
8653;BME280;4364;52.426;9.424;2023-01-29T06:19:45;102185.56;;;0.11;80.80
8653;BME280;4364;52.426;9.424;2023-01-29T06:22:11;102196.78;;;-0.02;80.86
8653;BME280;4364;52.426;9.424;2023-01-29T06:24:38;102196.13;;;-0.04;81.32
8653;BME280;4364;52.426;9.424;2023-01-29T06:27:04;102194.97;;;-0.02;81.49
8653;BME280;4364;52.426;9.424;2023-01-29T06:29:31;102196.28;;;0.03;81.18
8653;BME280;4364;52.426;9.424;2023-01-29T06:31:57;102198.63;;;-0.11;82.04
8653;BME280;4364;52.426;9.424;2023-01-29T06:34:24;102191.13;;;-0.15;81.93
8653;BME280;4364;52.426;9.424;2023-01-29T06:36:50;102190.28;;;-0.08;81.91
8653;BME280;4364;52.426;9.424;2023-01-29T06:39:17;102184.78;;;-0.06;81.72
8653;BME280;4364;52.426;9.424;2023-01-29T06:41:43;102190.78;;;-0.12;82.32
8653;BME280;4364;52.426;9.424;2023-01-29T06:44:12;102193.78;;;0.01;81.80
8653;BME280;4364;52.426;9.424;2023-01-29T06:46:38;102186.09;;;-0.10;82.26
8653;BME280;4364;52.426;9.424;2023-01-29T06:49:05;102181.38;;;0.08;82.02
8653;BME280;4364;52.426;9.424;2023-01-29T06:51:31;102180.22;;;0.03;81.52
8653;BME280;4364;52.426;9.424;2023-01-29T06:53:58;102203.81;;;-0.09;82.40
8653;BME280;4364;52.426;9.424;2023-01-29T06:56:25;102207.16;;;-0.07;83.24
8653;BME280;4364;52.426;9.424;2023-01-29T06:58:51;102208.16;;;0.00;82.63
8653;BME280;4364;52.426;9.424;2023-01-29T07:01:18;102219.50;;;0.10;82.61
8653;BME280;4364;52.426;9.424;2023-01-29T07:04:01;102214.34;;;0.01;83.09
8653;BME280;4364;52.426;9.424;2023-01-29T07:06:29;102223.53;;;0.06;83.46
8653;BME280;4364;52.426;9.424;2023-01-29T07:08:55;102225.38;;;-0.11;84.24
8653;BME280;4364;52.426;9.424;2023-01-29T07:11:22;102214.34;;;0.01;84.38
8653;BME280;4364;52.426;9.424;2023-01-29T07:13:49;102207.66;;;-0.04;84.45
8653;BME280;4364;52.426;9.424;2023-01-29T07:16:15;102212.00;;;-0.03;84.97
8653;BME280;4364;52.426;9.424;2023-01-29T07:18:41;102216.50;;;0.05;84.64
8653;BME280;4364;52.426;9.424;2023-01-29T07:21:08;102211.84;;;-0.09;85.66
8653;BME280;4364;52.426;9.424;2023-01-29T07:23:35;102215.66;;;-0.04;85.74
8653;BME280;4364;52.426;9.424;2023-01-29T07:26:03;102205.69;;;-0.18;86.92
8653;BME280;4364;52.426;9.424;2023-01-29T07:28:30;102186.97;;;-0.26;87.66
8653;BME280;4364;52.426;9.424;2023-01-29T07:30:57;102182.28;;;-0.24;88.04
8653;BME280;4364;52.426;9.424;2023-01-29T07:33:25;102186.97;;;-0.26;88.27
8653;BME280;4364;52.426;9.424;2023-01-29T07:35:52;102192.31;;;-0.26;88.60
8653;BME280;4364;52.426;9.424;2023-01-29T07:38:18;102195.31;;;-0.13;88.86
8653;BME280;4364;52.426;9.424;2023-01-29T07:40:45;102190.63;;;-0.27;89.69
8653;BME280;4364;52.426;9.424;2023-01-29T07:43:12;102183.09;;;-0.24;89.54
8653;BME280;4364;52.426;9.424;2023-01-29T07:45:38;102181.44;;;-0.25;90.05
8653;BME280;4364;52.426;9.424;2023-01-29T07:48:08;102179.59;;;-0.16;89.77
8653;BME280;4364;52.426;9.424;2023-01-29T07:50:35;102180.44;;;-0.24;90.20
8653;BME280;4364;52.426;9.424;2023-01-29T07:53:02;102170.22;;;-0.12;90.46
8653;BME280;4364;52.426;9.424;2023-01-29T07:55:29;102143.16;;;-0.17;90.16
8653;BME280;4364;52.426;9.424;2023-01-29T07:57:56;102146.69;;;-0.25;90.58
8653;BME280;4364;52.426;9.424;2023-01-29T08:00:23;102149.88;;;-0.21;91.54
8653;BME280;4364;52.426;9.424;2023-01-29T08:02:50;102151.88;;;-0.15;91.33
8653;BME280;4364;52.426;9.424;2023-01-29T08:05:16;102141.50;;;-0.18;91.17
8653;BME280;4364;52.426;9.424;2023-01-29T08:07:43;102130.78;;;-0.10;91.20
8653;BME280;4364;52.426;9.424;2023-01-29T08:10:20;102141.16;;;-0.07;91.19
8653;BME280;4364;52.426;9.424;2023-01-29T08:12:58;102137.44;;;0.03;91.11
8653;BME280;4364;52.426;9.424;2023-01-29T08:15:26;102143.28;;;-0.02;91.22
8653;BME280;4364;52.426;9.424;2023-01-29T08:17:53;102141.81;;;-0.05;91.42
8653;BME280;4364;52.426;9.424;2023-01-29T08:20:23;102148.63;;;-0.02;92.23
8653;BME280;4364;52.426;9.424;2023-01-29T08:22:57;102148.31;;;-0.07;91.89
8653;BME280;4364;52.426;9.424;2023-01-29T08:25:24;102140.16;;;-0.14;92.88
8653;BME280;4364;52.426;9.424;2023-01-29T08:27:51;102135.81;;;-0.15;93.24
8653;BME280;4364;52.426;9.424;2023-01-29T08:30:17;102136.97;;;-0.17;93.10
8653;BME280;4364;52.426;9.424;2023-01-29T08:32:44;102140.94;;;-0.05;93.16
8653;BME280;4364;52.426;9.424;2023-01-29T08:35:10;102134.78;;;-0.06;92.51
8653;BME280;4364;52.426;9.424;2023-01-29T08:37:37;102141.81;;;-0.13;93.06
8653;BME280;4364;52.426;9.424;2023-01-29T08:40:03;102138.63;;;0.00;92.66
8653;BME280;4364;52.426;9.424;2023-01-29T08:42:30;102140.28;;;0.01;92.46
8653;BME280;4364;52.426;9.424;2023-01-29T08:44:57;102128.56;;;0.10;91.73
8653;BME280;4364;52.426;9.424;2023-01-29T08:47:23;102134.09;;;0.09;91.79
8653;BME280;4364;52.426;9.424;2023-01-29T08:49:50;102133.41;;;0.07;91.65
8653;BME280;4364;52.426;9.424;2023-01-29T08:52:16;102123.53;;;0.15;91.93
8653;BME280;4364;52.426;9.424;2023-01-29T08:54:42;102110.50;;;0.12;91.76
8653;BME280;4364;52.426;9.424;2023-01-29T08:57:09;102117.00;;;0.10;91.39
8653;BME280;4364;52.426;9.424;2023-01-29T08:59:36;102112.34;;;0.12;91.79
8653;BME280;4364;52.426;9.424;2023-01-29T09:02:03;102116.19;;;0.09;91.82
8653;BME280;4364;52.426;9.424;2023-01-29T09:04:29;102120.00;;;0.15;91.58
8653;BME280;4364;52.426;9.424;2023-01-29T09:06:56;102114.41;;;0.33;90.51
8653;BME280;4364;52.426;9.424;2023-01-29T09:09:22;102120.59;;;0.33;90.10
8653;BME280;4364;52.426;9.424;2023-01-29T09:11:49;102127.78;;;0.33;89.98
8653;BME280;4364;52.426;9.424;2023-01-29T09:14:16;102124.56;;;0.46;89.23
8653;BME280;4364;52.426;9.424;2023-01-29T09:16:42;102124.44;;;0.39;89.35
8653;BME280;4364;52.426;9.424;2023-01-29T09:19:09;102125.78;;;0.35;89.21
8653;BME280;4364;52.426;9.424;2023-01-29T09:21:35;102109.84;;;0.42;89.30
8653;BME280;4364;52.426;9.424;2023-01-29T09:24:02;102103.31;;;0.44;88.87
8653;BME280;4364;52.426;9.424;2023-01-29T09:26:28;102099.44;;;0.47;89.09
8653;BME280;4364;52.426;9.424;2023-01-29T09:28:55;102094.78;;;0.49;88.79
8653;BME280;4364;52.426;9.424;2023-01-29T09:31:21;102106.44;;;0.56;88.46
8653;BME280;4364;52.426;9.424;2023-01-29T09:33:48;102093.69;;;0.58;88.06
8653;BME280;4364;52.426;9.424;2023-01-29T09:36:14;102087.56;;;0.49;87.81
8653;BME280;4364;52.426;9.424;2023-01-29T09:38:41;102077.28;;;0.61;87.60
8653;BME280;4364;52.426;9.424;2023-01-29T09:41:25;102088.00;;;0.61;87.58
8653;BME280;4364;52.426;9.424;2023-01-29T09:44:08;102077.59;;;0.66;86.86
8653;BME280;4364;52.426;9.424;2023-01-29T09:46:43;102085.97;;;0.63;87.46
8653;BME280;4364;52.426;9.424;2023-01-29T09:49:22;102075.75;;;0.67;86.62
8653;BME280;4364;52.426;9.424;2023-01-29T09:52:07;102074.56;;;0.69;86.08
8653;BME280;4364;52.426;9.424;2023-01-29T09:54:50;102069.63;;;0.81;86.40
8653;BME280;4364;52.426;9.424;2023-01-29T09:57:24;102064.22;;;0.89;85.63
8653;BME280;4364;52.426;9.424;2023-01-29T09:59:53;102071.00;;;0.77;86.08
8653;BME280;4364;52.426;9.424;2023-01-29T10:05:24;102074.88;;;0.74;85.83
8653;BME280;4364;52.426;9.424;2023-01-29T10:08:17;102077.19;;;0.78;85.75
8653;BME280;4364;52.426;9.424;2023-01-29T10:13:53;102062.13;;;0.77;85.31
8653;BME280;4364;52.426;9.424;2023-01-29T10:25:21;102078.25;;;0.68;85.31
8653;BME280;4364;52.426;9.424;2023-01-29T10:27:51;102080.97;;;0.60;85.39
8653;BME280;4364;52.426;9.424;2023-01-29T10:30:23;102072.88;;;0.68;85.11
8653;BME280;4364;52.426;9.424;2023-01-29T10:32:54;102074.75;;;0.68;85.22
8653;BME280;4364;52.426;9.424;2023-01-29T10:35:30;102071.25;;;0.67;85.14
8653;BME280;4364;52.426;9.424;2023-01-29T10:38:12;102070.09;;;0.62;85.39
8653;BME280;4364;52.426;9.424;2023-01-29T10:43:33;102070.47;;;0.59;84.82
8653;BME280;4364;52.426;9.424;2023-01-29T10:49:05;102055.88;;;0.61;85.14
8653;BME280;4364;52.426;9.424;2023-01-29T10:51:51;102054.19;;;0.60;85.24
8653;BME280;4364;52.426;9.424;2023-01-29T10:57:05;102036.03;;;0.55;85.12
8653;BME280;4364;52.426;9.424;2023-01-29T11:02:21;102024.88;;;0.67;84.02
8653;BME280;4364;52.426;9.424;2023-01-29T11:04:49;102021.50;;;0.73;83.94
8653;BME280;4364;52.426;9.424;2023-01-29T11:07:17;102009.47;;;0.69;83.96
8653;BME280;4364;52.426;9.424;2023-01-29T11:09:55;102014.97;;;0.76;83.68
8653;BME280;4364;52.426;9.424;2023-01-29T11:12:26;102013.03;;;0.84;82.89
8653;BME280;4364;52.426;9.424;2023-01-29T11:15:04;102008.03;;;0.81;82.89
8653;BME280;4364;52.426;9.424;2023-01-29T11:17:32;102004.25;;;0.76;82.94
8653;BME280;4364;52.426;9.424;2023-01-29T11:19:58;102001.81;;;0.66;83.20
8653;BME280;4364;52.426;9.424;2023-01-29T11:22:27;101994.78;;;0.65;83.31
8653;BME280;4364;52.426;9.424;2023-01-29T11:25:18;101994.19;;;0.78;83.04
8653;BME280;4364;52.426;9.424;2023-01-29T11:27:48;101984.28;;;0.78;82.82
8653;BME280;4364;52.426;9.424;2023-01-29T11:30:33;101994.13;;;0.86;82.83
8653;BME280;4364;52.426;9.424;2023-01-29T11:33:21;101993.28;;;0.85;82.36
8653;BME280;4364;52.426;9.424;2023-01-29T11:35:49;101989.56;;;0.86;82.31
8653;BME280;4364;52.426;9.424;2023-01-29T11:38:28;101982.94;;;0.82;82.64
8653;BME280;4364;52.426;9.424;2023-01-29T11:41:06;101976.66;;;0.90;82.87
8653;BME280;4364;52.426;9.424;2023-01-29T11:43:33;101977.56;;;0.82;82.72
8653;BME280;4364;52.426;9.424;2023-01-29T11:46:05;101965.41;;;0.95;81.93
8653;BME280;4364;52.426;9.424;2023-01-29T11:48:52;101963.53;;;0.95;82.15
8653;BME280;4364;52.426;9.424;2023-01-29T11:51:28;101955.59;;;0.87;82.19
8653;BME280;4364;52.426;9.424;2023-01-29T11:53:57;101957.84;;;0.98;81.69
8653;BME280;4364;52.426;9.424;2023-01-29T11:56:33;101962.09;;;0.92;81.80
8653;BME280;4364;52.426;9.424;2023-01-29T11:59:01;101950.06;;;1.03;81.79
8653;BME280;4364;52.426;9.424;2023-01-29T12:01:37;101941.94;;;0.97;81.99
8653;BME280;4364;52.426;9.424;2023-01-29T12:04:18;101947.13;;;0.98;81.80
8653;BME280;4364;52.426;9.424;2023-01-29T12:06:46;101939.63;;;1.08;81.56
8653;BME280;4364;52.426;9.424;2023-01-29T12:09:20;101933.91;;;1.11;80.99
8653;BME280;4364;52.426;9.424;2023-01-29T12:11:47;101922.81;;;1.00;81.35
8653;BME280;4364;52.426;9.424;2023-01-29T12:14:27;101916.56;;;1.07;81.47
8653;BME280;4364;52.426;9.424;2023-01-29T12:17:15;101916.19;;;1.10;81.00
8653;BME280;4364;52.426;9.424;2023-01-29T12:19:55;101907.13;;;1.11;81.15
8653;BME280;4364;52.426;9.424;2023-01-29T12:22:50;101893.09;;;1.09;81.08
8653;BME280;4364;52.426;9.424;2023-01-29T12:27:56;101893.56;;;1.13;80.69
8653;BME280;4364;52.426;9.424;2023-01-29T12:30:36;101898.09;;;1.13;80.78
8653;BME280;4364;52.426;9.424;2023-01-29T12:33:13;101891.13;;;1.03;81.53
8653;BME280;4364;52.426;9.424;2023-01-29T12:35:47;101899.63;;;1.07;81.41
8653;BME280;4364;52.426;9.424;2023-01-29T12:38:21;101887.63;;;1.03;81.44
8653;BME280;4364;52.426;9.424;2023-01-29T12:40:59;101887.38;;;1.13;81.51
8653;BME280;4364;52.426;9.424;2023-01-29T12:46:02;101882.47;;;1.01;81.62
8653;BME280;4364;52.426;9.424;2023-01-29T12:48:33;101877.56;;;1.05;81.46
8653;BME280;4364;52.426;9.424;2023-01-29T12:51:09;101872.56;;;1.02;81.56
8653;BME280;4364;52.426;9.424;2023-01-29T12:53:42;101878.78;;;1.02;81.27
8653;BME280;4364;52.426;9.424;2023-01-29T12:56:15;101880.69;;;1.08;81.46
8653;BME280;4364;52.426;9.424;2023-01-29T12:58:47;101869.97;;;1.08;81.47
8653;BME280;4364;52.426;9.424;2023-01-29T13:01:30;101865.19;;;1.19;81.21
8653;BME280;4364;52.426;9.424;2023-01-29T13:04:10;101869.72;;;1.18;81.17
8653;BME280;4364;52.426;9.424;2023-01-29T13:06:44;101866.41;;;1.16;80.56
8653;BME280;4364;52.426;9.424;2023-01-29T13:09:16;101850.84;;;1.26;80.81
8653;BME280;4364;52.426;9.424;2023-01-29T13:11:52;101847.06;;;1.36;80.29
8653;BME280;4364;52.426;9.424;2023-01-29T13:14:23;101836.13;;;1.52;80.41
8653;BME280;4364;52.426;9.424;2023-01-29T13:17:02;101838.44;;;1.40;80.78
8653;BME280;4364;52.426;9.424;2023-01-29T13:19:37;101842.72;;;1.35;82.33
8653;BME280;4364;52.426;9.424;2023-01-29T13:22:19;101834.13;;;1.39;81.20
8653;BME280;4364;52.426;9.424;2023-01-29T13:24:48;101829.31;;;1.35;81.59
8653;BME280;4364;52.426;9.424;2023-01-29T13:27:35;101814.25;;;1.34;81.73
8653;BME280;4364;52.426;9.424;2023-01-29T13:30:03;101806.00;;;1.35;82.14
8653;BME280;4364;52.426;9.424;2023-01-29T13:32:31;101807.56;;;1.44;81.61
8653;BME280;4364;52.426;9.424;2023-01-29T13:35:03;101802.78;;;1.40;81.31
8653;BME280;4364;52.426;9.424;2023-01-29T13:37:35;101814.81;;;1.29;81.98
8653;BME280;4364;52.426;9.424;2023-01-29T13:40:05;101811.88;;;1.24;82.33
8653;BME280;4364;52.426;9.424;2023-01-29T13:42:40;101800.91;;;1.19;82.99
8653;BME280;4364;52.426;9.424;2023-01-29T13:45:17;101804.59;;;1.18;83.32
8653;BME280;4364;52.426;9.424;2023-01-29T13:47:45;101792.28;;;1.23;83.76
8653;BME280;4364;52.426;9.424;2023-01-29T13:50:25;101793.19;;;1.31;84.17
8653;BME280;4364;52.426;9.424;2023-01-29T13:52:59;101792.19;;;1.17;83.99
8653;BME280;4364;52.426;9.424;2023-01-29T13:55:36;101781.03;;;1.13;84.40
8653;BME280;4364;52.426;9.424;2023-01-29T13:58:05;101790.09;;;1.12;84.32
8653;BME280;4364;52.426;9.424;2023-01-29T14:05:41;101776.50;;;1.14;85.53
8653;BME280;4364;52.426;9.424;2023-01-29T14:10:37;101778.53;;;1.11;86.38
8653;BME280;4364;52.426;9.424;2023-01-29T14:15:34;101766.44;;;1.16;87.34
8653;BME280;4364;52.426;9.424;2023-01-29T14:25:48;101757.00;;;1.05;90.09
8653;BME280;4364;52.426;9.424;2023-01-29T14:28:20;101764.06;;;0.91;91.17
8653;BME280;4364;52.426;9.424;2023-01-29T14:30:48;101757.50;;;0.93;91.73
8653;BME280;4364;52.426;9.424;2023-01-29T14:33:39;101746.69;;;0.87;92.08
8653;BME280;4364;52.426;9.424;2023-01-29T14:36:11;101754.56;;;0.73;93.68
8653;BME280;4364;52.426;9.424;2023-01-29T14:38:44;101759.63;;;0.83;94.26
8653;BME280;4364;52.426;9.424;2023-01-29T14:41:27;101741.66;;;0.77;94.39
8653;BME280;4364;52.426;9.424;2023-01-29T14:45:06;101748.94;;;0.68;94.70
8653;BME280;4364;52.426;9.424;2023-01-29T14:47:03;101743.47;;;0.77;94.39
8653;BME280;4364;52.426;9.424;2023-01-29T14:52:20;101743.38;;;0.85;93.33